createdAt,value
2023-02-19T00:02:46.839Z,74.88
2023-02-19T00:06:20.860Z,74.76
2023-02-19T00:09:40.286Z,74.45
2023-02-19T00:13:11.863Z,73.92
2023-02-19T00:17:17.834Z,72.99
2023-02-19T00:20:50.765Z,72.79
2023-02-19T00:24:20.779Z,72.93
2023-02-19T00:26:49.152Z,73.02
2023-02-19T00:29:21.584Z,72.96
2023-02-19T00:31:49.653Z,72.38
2023-02-19T00:34:17.677Z,72.52
2023-02-19T00:36:45.629Z,72.40
2023-02-19T00:39:16.251Z,72.11
2023-02-19T00:41:46.315Z,71.83
2023-02-19T00:44:16.526Z,71.31
2023-02-19T00:46:47.503Z,71.14
2023-02-19T00:49:20.027Z,71.27
2023-02-19T00:51:48.309Z,70.92
2023-02-19T00:54:16.679Z,70.40
2023-02-19T00:56:44.492Z,70.36
2023-02-19T00:59:12.777Z,70.14
2023-02-19T01:02:20.803Z,70.23
2023-02-19T01:05:55.178Z,70.17
2023-02-19T01:09:47.790Z,70.55
2023-02-19T01:13:14.186Z,70.55
2023-02-19T01:17:02.331Z,70.21
2023-02-19T01:20:31.837Z,70.06
2023-02-19T01:24:02.086Z,70.04
2023-02-19T01:27:58.818Z,70.09
2023-02-19T01:32:01.956Z,70.06
2023-02-19T01:35:49.147Z,70.15
2023-02-19T01:43:02.923Z,70.25
2023-02-19T01:46:34.116Z,70.51
2023-02-19T01:52:55.951Z,71.09
2023-02-19T01:55:24.361Z,71.04
2023-02-19T01:57:55.618Z,71.19
2023-02-19T02:00:24.970Z,70.95
2023-02-19T02:02:58.611Z,70.86
2023-02-19T02:05:45.973Z,70.96
2023-02-19T02:08:31.426Z,70.58
2023-02-19T02:10:59.716Z,71.12
2023-02-19T02:13:28.540Z,70.84
2023-02-19T02:16:10.768Z,71.33
2023-02-19T02:19:01.921Z,71.29
2023-02-19T02:21:59.221Z,71.35
2023-02-19T02:24:53.271Z,70.94
2023-02-19T02:27:44.481Z,71.11
2023-02-19T02:30:30.181Z,71.10
2023-02-19T02:33:13.122Z,71.41
2023-02-19T02:35:56.100Z,71.56
2023-02-19T02:38:29.102Z,71.52
2023-02-19T02:40:57.792Z,71.94
2023-02-19T02:43:25.843Z,71.53
2023-02-19T02:45:55.351Z,71.74
2023-02-19T02:48:35.211Z,71.98
2023-02-19T02:51:20.329Z,71.91
2023-02-19T02:54:14.206Z,71.92
2023-02-19T02:56:44.349Z,72.02
2023-02-19T02:59:14.965Z,72.42
2023-02-19T03:02:04.920Z,72.39
2023-02-19T03:05:24.967Z,72.53
2023-02-19T03:08:05.324Z,72.29
2023-02-19T03:10:41.188Z,72.21
2023-02-19T03:13:35.527Z,71.95
2023-02-19T03:16:25.614Z,72.07
2023-02-19T03:19:15.839Z,71.90
2023-02-19T03:21:47.085Z,71.40
2023-02-19T03:24:36.134Z,71.32
2023-02-19T03:27:04.980Z,71.08
2023-02-19T03:29:39.902Z,70.88
2023-02-19T03:32:14.867Z,70.67
2023-02-19T03:34:53.047Z,70.72
2023-02-19T03:37:28.417Z,70.84
2023-02-19T03:39:57.757Z,70.65
2023-02-19T03:42:43.450Z,70.68
2023-02-19T03:45:25.640Z,70.27
2023-02-19T03:48:18.806Z,70.61
2023-02-19T03:51:02.121Z,70.28
2023-02-19T03:53:37.937Z,70.47
2023-02-19T03:56:11.706Z,70.26
2023-02-19T03:59:02.257Z,70.52
2023-02-19T04:01:47.157Z,70.81
2023-02-19T04:04:30.392Z,71.29
2023-02-19T04:06:59.114Z,71.13
2023-02-19T04:09:38.601Z,71.05
2023-02-19T04:12:16.528Z,71.32
2023-02-19T04:15:04.301Z,71.27
2023-02-19T04:17:53.475Z,71.37
2023-02-19T04:20:26.174Z,71.57
2023-02-19T04:22:56.469Z,71.70
2023-02-19T04:25:29.475Z,71.71
2023-02-19T04:28:00.099Z,71.68
2023-02-19T04:30:50.200Z,72.06
2023-02-19T04:33:18.911Z,72.74
2023-02-19T04:35:46.966Z,73.00
2023-02-19T04:38:18.668Z,72.96
2023-02-19T04:40:48.985Z,73.27
2023-02-19T04:43:37.257Z,73.16
2023-02-19T04:46:06.310Z,72.91
2023-02-19T04:48:35.942Z,72.60
2023-02-19T04:51:08.179Z,72.70
2023-02-19T04:53:39.834Z,72.24
2023-02-19T04:56:19.030Z,72.50
2023-02-19T04:59:13.968Z,72.52
2023-02-19T05:01:43.515Z,72.59
2023-02-19T05:04:11.955Z,72.68
2023-02-19T05:06:43.631Z,72.99
2023-02-19T05:09:13.388Z,72.92
2023-02-19T05:11:42.192Z,72.85
2023-02-19T05:14:10.178Z,72.93
2023-02-19T05:16:38.825Z,72.68
2023-02-19T05:19:07.110Z,72.42
2023-02-19T05:21:35.430Z,72.40
2023-02-19T05:24:03.746Z,72.55
2023-02-19T05:26:45.355Z,72.13
2023-02-19T05:29:14.389Z,72.14
2023-02-19T05:31:44.421Z,71.68
2023-02-19T05:34:14.056Z,71.54
2023-02-19T05:36:42.806Z,71.33
2023-02-19T05:39:12.754Z,71.53
2023-02-19T05:41:41.416Z,71.20
2023-02-19T05:44:11.524Z,70.99
2023-02-19T05:46:41.062Z,71.04
2023-02-19T05:49:09.461Z,70.64
2023-02-19T05:51:40.661Z,70.58
2023-02-19T05:54:28.732Z,70.74
2023-02-19T05:56:59.345Z,70.82
2023-02-19T05:59:27.814Z,70.46
2023-02-19T06:01:59.822Z,70.53
2023-02-19T06:04:29.180Z,70.63
2023-02-19T06:06:58.645Z,70.22
2023-02-19T06:09:27.203Z,70.52
2023-02-19T06:12:16.051Z,70.41
2023-02-19T06:14:45.944Z,70.14
2023-02-19T06:17:15.847Z,70.14
2023-02-19T06:19:44.724Z,70.24
2023-02-19T06:22:16.153Z,69.82
2023-02-19T06:24:47.833Z,69.19
2023-02-19T06:27:17.400Z,69.65
2023-02-19T06:29:46.252Z,69.42
2023-02-19T06:32:16.735Z,69.06
2023-02-19T06:34:51.806Z,68.98
2023-02-19T06:37:20.695Z,69.31
2023-02-19T06:39:49.189Z,69.01
2023-02-19T06:42:19.250Z,68.75
2023-02-19T06:44:48.908Z,68.60
2023-02-19T06:47:20.498Z,68.76
2023-02-19T06:50:08.624Z,68.22
2023-02-19T06:52:37.755Z,68.46
2023-02-19T06:55:09.593Z,68.32
2023-02-19T06:57:38.288Z,68.31
2023-02-19T07:00:18.772Z,68.36
2023-02-19T07:02:58.210Z,68.46
2023-02-19T07:05:26.960Z,68.43
2023-02-19T07:07:55.315Z,68.28
2023-02-19T07:10:23.320Z,68.32
2023-02-19T07:12:51.262Z,68.31
2023-02-19T07:15:20.108Z,68.35
2023-02-19T07:17:51.729Z,68.19
2023-02-19T07:20:27.116Z,68.46
2023-02-19T07:22:57.573Z,67.80
2023-02-19T07:25:45.389Z,67.83
2023-02-19T07:28:14.901Z,67.52
2023-02-19T07:30:44.682Z,67.31
2023-02-19T07:33:45.846Z,67.20
2023-02-19T07:37:21.808Z,66.61
2023-02-19T07:41:14.230Z,66.19
2023-02-19T07:45:07.856Z,65.41
2023-02-19T07:48:59.802Z,65.36
2023-02-19T07:52:54.004Z,65.40
2023-02-19T07:59:59.850Z,63.87
2023-02-19T08:03:43.732Z,64.73
2023-02-19T08:07:39.062Z,64.39
2023-02-19T08:11:25.338Z,64.30
2023-02-19T08:14:44.126Z,63.85
2023-02-19T08:18:11.761Z,63.44
2023-02-19T08:21:59.978Z,63.52
2023-02-19T08:25:18.957Z,62.23
2023-02-19T08:29:03.903Z,62.59
2023-02-19T08:32:37.793Z,62.84
2023-02-19T08:36:30.783Z,62.80
2023-02-19T08:40:37.797Z,62.88
2023-02-19T08:44:09.811Z,62.61
2023-02-19T08:48:03.978Z,62.46
2023-02-19T08:51:35.767Z,61.68
2023-02-19T08:55:27.798Z,61.30
2023-02-19T08:59:08.892Z,60.18
2023-02-19T09:02:46.265Z,59.43
2023-02-19T09:06:40.088Z,58.21
2023-02-19T09:14:04.738Z,58.42
2023-02-19T09:21:32.954Z,56.64
2023-02-19T09:25:04.921Z,56.00
2023-02-19T09:28:38.148Z,54.69
2023-02-19T09:32:07.846Z,54.86
2023-02-19T09:35:52.852Z,54.98
2023-02-19T09:39:21.746Z,53.51
2023-02-19T09:41:58.045Z,52.54
2023-02-19T09:44:30.982Z,51.87
2023-02-19T09:47:01.303Z,50.46
2023-02-19T09:49:34.119Z,49.59
2023-02-19T09:52:23.028Z,47.84
2023-02-19T09:54:52.218Z,48.23
2023-02-19T09:57:21.678Z,47.89
2023-02-19T09:59:54.205Z,47.53
2023-02-19T10:02:25.673Z,46.84
2023-02-19T10:04:54.183Z,46.30
2023-02-19T10:07:25.645Z,46.11
2023-02-19T10:10:01.129Z,45.92
2023-02-19T10:12:31.459Z,46.77
2023-02-19T10:15:09.637Z,47.03
2023-02-19T10:17:37.683Z,45.48
2023-02-19T10:20:06.390Z,45.52
2023-02-19T10:22:38.051Z,45.20
2023-02-19T10:25:06.663Z,45.62
2023-02-19T10:27:34.604Z,45.51
2023-02-19T10:30:02.752Z,46.11
2023-02-19T10:32:30.719Z,46.06
2023-02-19T10:35:16.437Z,45.59
2023-02-19T10:37:49.334Z,45.04
2023-02-19T10:40:21.890Z,45.77
2023-02-19T10:42:53.796Z,45.51
2023-02-19T10:45:30.249Z,45.21
2023-02-19T10:47:58.746Z,45.13
2023-02-19T10:50:32.183Z,45.20
2023-02-19T10:53:02.101Z,45.15
2023-02-19T10:55:36.660Z,45.10
2023-02-19T10:58:24.155Z,45.42
2023-02-19T11:01:13.408Z,45.08
2023-02-19T11:03:41.776Z,45.01
2023-02-19T11:06:12.092Z,45.44
2023-02-19T11:08:50.302Z,45.93
2023-02-19T11:11:38.748Z,46.00
2023-02-19T11:14:18.949Z,46.08
2023-02-19T11:16:52.027Z,46.47
2023-02-19T11:19:28.705Z,46.89
2023-02-19T11:21:56.756Z,47.90
2023-02-19T11:24:34.040Z,48.57
2023-02-19T11:27:15.259Z,49.33
2023-02-19T11:29:43.290Z,49.31
2023-02-19T11:32:29.735Z,49.64
2023-02-19T11:35:25.222Z,49.62
2023-02-19T11:38:01.800Z,49.50
2023-02-19T11:40:44.739Z,49.18
2023-02-19T11:43:38.729Z,49.28
2023-02-19T11:46:17.733Z,48.85
2023-02-19T11:49:02.601Z,48.78
2023-02-19T11:51:54.006Z,48.60
2023-02-19T11:54:41.766Z,49.30
2023-02-19T11:57:39.579Z,49.94
2023-02-19T12:00:24.698Z,50.75
2023-02-19T12:03:18.426Z,50.60
2023-02-19T12:06:20.075Z,49.67
2023-02-19T12:09:12.119Z,49.80
2023-02-19T12:12:10.512Z,49.14
2023-02-19T12:15:07.991Z,48.66
2023-02-19T12:18:10.858Z,48.54
2023-02-19T12:20:58.808Z,48.04
2023-02-19T12:24:01.154Z,48.00
2023-02-19T12:27:02.041Z,47.90
2023-02-19T12:30:01.612Z,48.37
2023-02-19T12:32:50.272Z,48.73
2023-02-19T12:35:44.884Z,48.91
2023-02-19T12:38:25.982Z,48.83
2023-02-19T12:41:13.056Z,48.90
2023-02-19T12:43:44.897Z,48.84
2023-02-19T12:46:20.641Z,48.15
2023-02-19T12:48:58.937Z,48.48
2023-02-19T12:51:37.101Z,49.05
2023-02-19T12:54:29.400Z,49.64
2023-02-19T12:57:05.659Z,50.52
2023-02-19T12:59:52.108Z,51.53
2023-02-19T13:02:33.394Z,52.41
2023-02-19T13:05:11.261Z,53.94
2023-02-19T13:07:49.860Z,55.37
2023-02-19T13:10:31.418Z,56.31
2023-02-19T13:13:05.596Z,57.28
2023-02-19T13:15:39.334Z,57.86
2023-02-19T13:18:19.517Z,58.76
2023-02-19T13:20:48.856Z,59.02
2023-02-19T13:23:44.848Z,59.99
2023-02-19T13:26:43.171Z,60.52
2023-02-19T13:29:33.052Z,61.10
2023-02-19T13:32:22.751Z,62.14
2023-02-19T13:35:16.823Z,62.65
2023-02-19T13:37:45.282Z,62.72
2023-02-19T13:40:36.683Z,62.99
2023-02-19T13:43:14.027Z,63.37
2023-02-19T13:45:46.036Z,63.52
2023-02-19T13:48:28.185Z,63.48
2023-02-19T13:51:35.846Z,63.46
2023-02-19T13:54:14.647Z,63.33
2023-02-19T13:56:42.781Z,63.51
2023-02-19T13:59:25.879Z,63.91
2023-02-19T14:02:26.703Z,64.05
2023-02-19T14:05:00.150Z,64.82
2023-02-19T14:07:55.523Z,64.85
2023-02-19T14:10:50.752Z,64.98
2023-02-19T14:13:55.392Z,65.04
2023-02-19T14:17:05.550Z,65.59
2023-02-19T14:19:50.481Z,65.01
2023-02-19T14:22:52.602Z,62.69
2023-02-19T14:25:29.457Z,59.76
2023-02-19T14:28:16.864Z,57.79
2023-02-19T14:31:03.448Z,55.75
2023-02-19T14:33:34.841Z,53.68
2023-02-19T14:36:14.059Z,51.93
2023-02-19T14:38:50.587Z,52.71
2023-02-19T14:41:19.001Z,54.12
2023-02-19T14:43:50.735Z,55.23
2023-02-19T14:46:31.165Z,56.18
2023-02-19T14:49:07.881Z,57.37
2023-02-19T14:51:41.411Z,57.36
2023-02-19T14:54:24.007Z,58.17
2023-02-19T14:56:54.179Z,58.90
2023-02-19T14:59:27.078Z,59.36
2023-02-19T15:01:57.322Z,59.66
2023-02-19T15:04:28.924Z,59.62
2023-02-19T15:07:00.448Z,59.91
2023-02-19T15:09:33.310Z,59.89
2023-02-19T15:12:02.739Z,60.19
2023-02-19T15:14:32.293Z,60.62
2023-02-19T15:17:04.232Z,60.96
2023-02-19T15:19:36.209Z,61.06
2023-02-19T15:22:04.504Z,60.85
2023-02-19T15:24:32.347Z,61.14
2023-02-19T15:27:00.388Z,61.20
2023-02-19T15:30:28.020Z,61.04
2023-02-19T15:33:39.942Z,60.15
2023-02-19T15:36:44.844Z,59.88
2023-02-19T15:39:53.335Z,59.84
2023-02-19T15:43:10.264Z,60.30
2023-02-19T15:45:47.417Z,62.04
2023-02-19T15:48:21.941Z,64.94
2023-02-19T15:50:57.837Z,67.39
2023-02-19T15:53:37.669Z,69.47
2023-02-19T15:56:45.757Z,71.51
2023-02-19T15:59:33.375Z,72.61
2023-02-19T16:02:03.484Z,75.03
2023-02-19T16:04:34.411Z,77.18
2023-02-19T16:07:05.868Z,77.64
2023-02-19T16:09:37.097Z,77.61
2023-02-19T16:12:21.235Z,78.54
2023-02-19T16:14:49.374Z,79.32
2023-02-19T16:17:27.833Z,80.02
2023-02-19T16:19:58.918Z,80.37
2023-02-19T16:22:34.130Z,80.66
2023-02-19T16:25:05.998Z,80.87
2023-02-19T16:27:37.697Z,82.24
2023-02-19T16:30:26.546Z,83.60
2023-02-19T16:33:26.390Z,83.63
2023-02-19T16:35:56.620Z,83.97
2023-02-19T16:38:25.118Z,84.59
2023-02-19T16:41:18.869Z,86.08
2023-02-19T16:48:45.842Z,86.91
2023-02-19T16:52:11.823Z,87.43
2023-02-19T17:03:24.801Z,86.27
2023-02-19T17:10:32.868Z,85.79
2023-02-19T17:17:54.823Z,87.91
2023-02-19T17:22:07.829Z,87.98
2023-02-19T17:25:43.835Z,87.85
2023-02-19T17:29:17.790Z,87.36
2023-02-19T17:47:21.828Z,85.18
2023-02-19T17:59:37.837Z,83.19
2023-02-19T18:07:25.610Z,82.00
2023-02-19T18:15:23.719Z,82.00
2023-02-19T18:19:01.870Z,82.09
2023-02-19T18:22:48.826Z,82.55
2023-02-19T18:26:21.825Z,82.99
2023-02-19T18:30:09.875Z,82.87
2023-02-19T18:33:30.836Z,82.19
2023-02-19T18:37:04.823Z,81.09
2023-02-19T18:41:01.834Z,81.14
2023-02-19T18:44:56.839Z,79.64
2023-02-19T18:48:58.183Z,77.86
2023-02-19T18:52:29.880Z,76.67
2023-02-19T18:56:13.630Z,79.06
2023-02-19T19:00:06.995Z,79.96
2023-02-19T19:03:48.862Z,81.86
2023-02-19T19:11:38.791Z,85.55
2023-02-19T19:18:51.862Z,85.72
2023-02-19T19:22:39.939Z,85.68
2023-02-19T19:26:12.154Z,87.19
2023-02-19T19:30:02.824Z,86.29
2023-02-19T19:37:12.878Z,87.68
2023-02-19T19:40:41.964Z,87.00
2023-02-19T19:48:14.820Z,89.42
2023-02-19T20:07:24.868Z,87.93
2023-02-19T20:10:55.786Z,87.81
2023-02-19T20:18:15.770Z,88.14
2023-02-19T20:21:51.831Z,88.85
2023-02-19T20:41:30.834Z,89.63
2023-02-19T20:47:54.837Z,90.20
2023-02-19T20:51:32.838Z,90.18
2023-02-19T20:55:10.766Z,90.83
2023-02-19T21:03:10.653Z,91.53
2023-02-19T21:06:48.832Z,91.54
2023-02-19T21:17:32.917Z,92.80
2023-02-19T21:21:11.775Z,92.80
2023-02-19T21:24:40.841Z,92.44
2023-02-19T21:39:06.936Z,91.84
2023-02-19T21:41:42.331Z,91.00
2023-02-19T21:44:10.283Z,90.34
2023-02-19T21:46:38.766Z,89.50
2023-02-19T21:49:11.692Z,89.30
2023-02-19T21:51:43.169Z,89.23
2023-02-19T21:54:18.195Z,89.28
2023-02-19T21:56:47.094Z,89.31
2023-02-19T21:59:15.305Z,89.42
2023-02-19T22:01:43.859Z,89.23
2023-02-19T22:04:24.509Z,88.72
2023-02-19T22:06:56.287Z,87.90
2023-02-19T22:09:24.815Z,87.19
2023-02-19T22:11:52.800Z,86.12
2023-02-19T22:14:21.146Z,85.92
2023-02-19T22:16:49.797Z,85.69
2023-02-19T22:19:18.886Z,85.59
2023-02-19T22:21:47.498Z,85.47
2023-02-19T22:24:24.376Z,85.74
2023-02-19T22:26:56.760Z,86.10
2023-02-19T22:29:25.268Z,86.23
2023-02-19T22:31:59.824Z,86.54
2023-02-19T22:34:27.836Z,86.63
2023-02-19T22:36:55.955Z,86.67
2023-02-19T22:39:27.123Z,87.25
2023-02-19T22:41:58.451Z,87.35
2023-02-19T22:44:26.364Z,87.25
2023-02-19T22:46:56.109Z,87.78
2023-02-19T22:49:24.139Z,88.49
2023-02-19T22:52:00.636Z,88.62
2023-02-19T22:54:29.037Z,89.10
2023-02-19T22:56:57.837Z,88.95
2023-02-19T22:59:27.680Z,89.23
2023-02-19T23:01:56.125Z,89.20
2023-02-19T23:04:25.690Z,89.13
2023-02-19T23:06:53.789Z,89.28
2023-02-19T23:09:25.439Z,89.46
2023-02-19T23:12:00.802Z,89.18
2023-02-19T23:14:36.056Z,89.46
2023-02-19T23:17:05.316Z,89.38
2023-02-19T23:19:33.644Z,89.43
2023-02-19T23:22:01.725Z,89.57
2023-02-19T23:24:29.738Z,89.61
2023-02-19T23:26:59.575Z,89.42
2023-02-19T23:29:30.687Z,89.40
2023-02-19T23:32:00.531Z,89.45
2023-02-19T23:34:29.310Z,89.50
2023-02-19T23:36:59.620Z,89.52
2023-02-19T23:39:58.750Z,89.29
2023-02-19T23:43:24.189Z,89.11
2023-02-19T23:46:47.790Z,88.98
2023-02-19T23:50:05.826Z,87.75
2023-02-19T23:53:22.769Z,87.46
2023-02-19T23:56:49.828Z,87.01
